RYR73BP EGSS-LKTB
Flight info
| Callsign | RYR73BP |
|---|---|
| Flight time | 1h 46m |
| Altitude | 39000 |
| Route | CLN P44 RATLO M197 REDFA DCT TACHA DCT BADGO DCT SWALM DCT VELIS DCT OKG DCT LOMKI DCT TUMKA |
| Aircraft | B738/M-SDE3FGILRWY/SB1 |
Departure
| Time | 2026-04-23 10:14 |
|---|---|
| Airport | London Stansted Airport (EGSS) |
Arrival
| Time | 2026-04-23 12:00 |
|---|---|
| Airport | Brno-Tuřany Airport (LKTB) |
| Time | Latitude | Longitude | Altitude | Speed | Heading |
|---|---|---|---|---|---|
| 2026-04-23 09:44 | 51.89322 | 0.26087 | 353 ft | 0 kts | 223° |
| 2026-04-23 10:03 | 51.89336 | 0.26107 | 358 ft | 4 kts | 223° |
| 2026-04-23 10:03 | 51.89352 | 0.26131 | 351 ft | 4 kts | 232° |
| 2026-04-23 10:03 | 51.89356 | 0.26160 | 355 ft | 4 kts | 307° |
| 2026-04-23 10:03 | 51.89341 | 0.26189 | 358 ft | 2 kts | 313° |
| 2026-04-23 10:04 | 51.89339 | 0.26191 | 358 ft | 1 kts | 313° |
| 2026-04-23 10:06 | 51.89340 | 0.26190 | 358 ft | 1 kts | 313° |
| 2026-04-23 10:06 | 51.89355 | 0.26163 | 355 ft | 6 kts | 313° |
| 2026-04-23 10:06 | 51.89398 | 0.26089 | 348 ft | 12 kts | 313° |
| 2026-04-23 10:07 | 51.89470 | 0.25964 | 350 ft | 17 kts | 313° |
| 2026-04-23 10:07 | 51.89556 | 0.25837 | 350 ft | 17 kts | 327° |
| 2026-04-23 10:07 | 51.89605 | 0.25703 | 353 ft | 15 kts | 245° |
| 2026-04-23 10:07 | 51.89535 | 0.25588 | 353 ft | 14 kts | 223° |
| 2026-04-23 10:08 | 51.89461 | 0.25475 | 355 ft | 16 kts | 223° |
| 2026-04-23 10:08 | 51.89368 | 0.25335 | 348 ft | 21 kts | 223° |
| 2026-04-23 10:08 | 51.89257 | 0.25155 | 348 ft | 24 kts | 234° |
| 2026-04-23 10:09 | 51.89016 | 0.24739 | 348 ft | 28 kts | 223° |
| 2026-04-23 10:09 | 51.88875 | 0.24526 | 352 ft | 27 kts | 223° |
| 2026-04-23 10:09 | 51.88742 | 0.24328 | 354 ft | 25 kts | 222° |
| 2026-04-23 10:09 | 51.88618 | 0.24144 | 348 ft | 23 kts | 222° |
| 2026-04-23 10:10 | 51.88501 | 0.23969 | 352 ft | 23 kts | 223° |
| 2026-04-23 10:10 | 51.88373 | 0.23776 | 351 ft | 27 kts | 223° |
| 2026-04-23 10:10 | 51.88230 | 0.23560 | 354 ft | 28 kts | 223° |
| 2026-04-23 10:10 | 51.88094 | 0.23355 | 348 ft | 26 kts | 223° |
| 2026-04-23 10:11 | 51.87966 | 0.23162 | 352 ft | 25 kts | 223° |
| 2026-04-23 10:11 | 51.87831 | 0.22961 | 348 ft | 28 kts | 223° |
| 2026-04-23 10:11 | 51.87691 | 0.22753 | 350 ft | 27 kts | 223° |
| 2026-04-23 10:11 | 51.87565 | 0.22566 | 355 ft | 19 kts | 223° |
| 2026-04-23 10:12 | 51.87521 | 0.22432 | 352 ft | 13 kts | 292° |
| 2026-04-23 10:12 | 51.87566 | 0.22345 | 337 ft | 10 kts | 313° |
| 2026-04-23 10:12 | 51.87622 | 0.22270 | 333 ft | 11 kts | 339° |
| 2026-04-23 10:12 | 51.87680 | 0.22254 | 337 ft | 7 kts | 14° |
| 2026-04-23 10:13 | 51.87696 | 0.22272 | 335 ft | 0 kts | 42° |
| 2026-04-23 10:13 | 51.87743 | 0.22344 | 339 ft | 36 kts | 43° |
| 2026-04-23 10:13 | 51.88114 | 0.22901 | 338 ft | 109 kts | 43° |
| 2026-04-23 10:14 | 51.88804 | 0.23946 | 493 ft | 152 kts | 45° |
| 2026-04-23 10:14 | 51.89582 | 0.25152 | 1321 ft | 159 kts | 46° |
| 2026-04-23 10:14 | 51.90395 | 0.26402 | 2201 ft | 163 kts | 47° |
| 2026-04-23 10:14 | 51.91170 | 0.27766 | 2939 ft | 164 kts | 60° |
| 2026-04-23 10:15 | 51.91623 | 0.29409 | 3797 ft | 164 kts | 82° |
| 2026-04-23 10:15 | 51.91652 | 0.30625 | 4259 ft | 164 kts | 99° |
| 2026-04-23 10:15 | 51.91287 | 0.32438 | 4883 ft | 174 kts | 115° |
| 2026-04-23 10:15 | 51.90736 | 0.34292 | 5336 ft | 194 kts | 113° |
| 2026-04-23 10:16 | 51.90158 | 0.36377 | 5559 ft | 214 kts | 113° |
| 2026-04-23 10:16 | 51.89524 | 0.38671 | 5878 ft | 230 kts | 113° |
| 2026-04-23 10:16 | 51.88840 | 0.41118 | 6263 ft | 250 kts | 114° |
| 2026-04-23 10:16 | 51.88093 | 0.43700 | 6917 ft | 259 kts | 114° |
| 2026-04-23 10:17 | 51.87315 | 0.46358 | 7705 ft | 260 kts | 114° |
| 2026-04-23 10:17 | 51.86537 | 0.49014 | 8468 ft | 264 kts | 114° |
| 2026-04-23 10:17 | 51.85742 | 0.51723 | 9205 ft | 268 kts | 114° |
| 2026-04-23 10:17 | 51.84936 | 0.54464 | 9980 ft | 271 kts | 115° |
| 2026-04-23 10:18 | 51.84120 | 0.57234 | 10714 ft | 275 kts | 114° |
| 2026-04-23 10:18 | 51.83406 | 0.60199 | 10992 ft | 295 kts | 98° |
| 2026-04-23 10:18 | 51.83309 | 0.63622 | 11212 ft | 315 kts | 90° |
| 2026-04-23 10:18 | 51.83311 | 0.67211 | 11743 ft | 323 kts | 90° |
| 2026-04-23 10:19 | 51.83247 | 0.70879 | 12340 ft | 329 kts | 92° |
| 2026-04-23 10:19 | 51.83245 | 0.74565 | 13165 ft | 329 kts | 86° |
| 2026-04-23 10:19 | 51.83408 | 0.78287 | 13860 ft | 334 kts | 85° |
| 2026-04-23 10:19 | 51.83598 | 0.82065 | 14554 ft | 338 kts | 85° |
| 2026-04-23 10:20 | 51.83759 | 0.85745 | 15310 ft | 339 kts | 85° |
| 2026-04-23 10:20 | 51.83911 | 0.89583 | 15965 ft | 344 kts | 85° |
| 2026-04-23 10:20 | 51.84055 | 0.93455 | 16668 ft | 347 kts | 86° |
| 2026-04-23 10:20 | 51.84196 | 0.97369 | 17373 ft | 351 kts | 86° |
| 2026-04-23 10:21 | 51.84334 | 1.01273 | 18042 ft | 354 kts | 86° |
| 2026-04-23 10:21 | 51.84474 | 1.05264 | 18727 ft | 357 kts | 85° |
| 2026-04-23 10:21 | 51.84613 | 1.09293 | 19319 ft | 360 kts | 86° |
| 2026-04-23 10:21 | 51.84764 | 1.13351 | 19891 ft | 363 kts | 83° |
| 2026-04-23 10:22 | 51.85376 | 1.17324 | 20420 ft | 367 kts | 68° |
| 2026-04-23 10:22 | 51.86394 | 1.21109 | 21038 ft | 369 kts | 66° |
| 2026-04-23 10:22 | 51.87458 | 1.24925 | 21508 ft | 374 kts | 66° |
| 2026-04-23 10:22 | 51.88531 | 1.28778 | 22097 ft | 377 kts | 66° |
| 2026-04-23 10:23 | 51.89602 | 1.32670 | 22611 ft | 381 kts | 67° |
| 2026-04-23 10:23 | 51.90674 | 1.36612 | 23130 ft | 384 kts | 67° |
| 2026-04-23 10:23 | 51.91747 | 1.40588 | 23692 ft | 387 kts | 68° |
| 2026-04-23 10:23 | 51.92827 | 1.44619 | 24090 ft | 393 kts | 68° |
| 2026-04-23 10:24 | 51.93912 | 1.48677 | 24583 ft | 393 kts | 68° |
| 2026-04-23 10:24 | 51.95003 | 1.52770 | 24964 ft | 397 kts | 68° |
| 2026-04-23 10:24 | 51.96102 | 1.56898 | 25358 ft | 401 kts | 68° |
| 2026-04-23 10:24 | 51.97210 | 1.61063 | 25753 ft | 404 kts | 69° |
| 2026-04-23 10:25 | 51.98323 | 1.65261 | 26143 ft | 407 kts | 69° |
| 2026-04-23 10:25 | 51.99370 | 1.69530 | 26549 ft | 408 kts | 74° |
| 2026-04-23 10:25 | 52.00126 | 1.73971 | 26944 ft | 409 kts | 77° |
| 2026-04-23 10:25 | 52.00812 | 1.78472 | 27318 ft | 412 kts | 78° |
| 2026-04-23 10:26 | 52.01485 | 1.83003 | 27680 ft | 415 kts | 78° |
| 2026-04-23 10:26 | 52.02168 | 1.87571 | 28060 ft | 417 kts | 78° |
| 2026-04-23 10:26 | 52.02861 | 1.92153 | 28448 ft | 419 kts | 78° |
| 2026-04-23 10:26 | 52.03566 | 1.96764 | 28794 ft | 422 kts | 78° |
| 2026-04-23 10:27 | 52.04279 | 2.01400 | 29148 ft | 424 kts | 78° |
| 2026-04-23 10:27 | 52.04997 | 2.06053 | 29503 ft | 426 kts | 78° |
| 2026-04-23 10:27 | 52.05717 | 2.10732 | 29858 ft | 428 kts | 78° |
| 2026-04-23 10:27 | 52.06439 | 2.15434 | 30172 ft | 430 kts | 79° |
| 2026-04-23 10:28 | 52.07164 | 2.20164 | 30494 ft | 432 kts | 79° |
| 2026-04-23 10:28 | 52.07879 | 2.24854 | 30759 ft | 434 kts | 79° |
| 2026-04-23 10:28 | 52.08606 | 2.29629 | 31029 ft | 436 kts | 79° |
| 2026-04-23 10:28 | 52.09332 | 2.34419 | 31309 ft | 437 kts | 78° |
| 2026-04-23 10:29 | 52.10058 | 2.39209 | 31673 ft | 435 kts | 78° |
| 2026-04-23 10:29 | 52.10778 | 2.43980 | 32084 ft | 433 kts | 78° |
| 2026-04-23 10:29 | 52.11495 | 2.48729 | 32441 ft | 432 kts | 78° |
| 2026-04-23 10:29 | 52.12303 | 2.53444 | 32746 ft | 433 kts | 76° |
| 2026-04-23 10:30 | 52.13191 | 2.58130 | 33065 ft | 433 kts | 75° |
| 2026-04-23 10:30 | 52.14103 | 2.62797 | 33426 ft | 432 kts | 75° |
| 2026-04-23 10:30 | 52.15012 | 2.67446 | 33796 ft | 430 kts | 75° |
| 2026-04-23 10:30 | 52.15908 | 2.72082 | 34100 ft | 430 kts | 75° |
| 2026-04-23 10:31 | 52.16797 | 2.76741 | 34400 ft | 430 kts | 75° |
| 2026-04-23 10:31 | 52.17675 | 2.81391 | 34670 ft | 429 kts | 75° |
| 2026-04-23 10:31 | 52.18549 | 2.86049 | 34902 ft | 430 kts | 75° |
| 2026-04-23 10:31 | 52.19422 | 2.90720 | 35094 ft | 431 kts | 75° |
| 2026-04-23 10:32 | 52.20293 | 2.95393 | 35317 ft | 431 kts | 75° |
| 2026-04-23 10:32 | 52.21164 | 3.00075 | 35557 ft | 431 kts | 75° |
| 2026-04-23 10:32 | 52.22032 | 3.04756 | 35788 ft | 431 kts | 75° |
| 2026-04-23 10:32 | 52.22899 | 3.09432 | 36012 ft | 431 kts | 75° |
| 2026-04-23 10:33 | 52.23765 | 3.14117 | 36228 ft | 431 kts | 75° |
| 2026-04-23 10:33 | 52.24569 | 3.18826 | 36433 ft | 431 kts | 81° |
| 2026-04-23 10:33 | 52.24853 | 3.23678 | 36633 ft | 429 kts | 91° |
| 2026-04-23 10:33 | 52.24614 | 3.28510 | 36898 ft | 427 kts | 101° |
| 2026-04-23 10:34 | 52.23859 | 3.33181 | 37133 ft | 426 kts | 108° |
| 2026-04-23 10:34 | 52.22914 | 3.37755 | 37310 ft | 426 kts | 109° |
| 2026-04-23 10:34 | 52.21935 | 3.42312 | 37530 ft | 425 kts | 109° |
| 2026-04-23 10:34 | 52.20946 | 3.46884 | 37476 ft | 430 kts | 109° |
| 2026-04-23 10:35 | 52.18968 | 3.56121 | 37490 ft | 433 kts | 109° |
| 2026-04-23 10:35 | 52.17004 | 3.65419 | 37486 ft | 434 kts | 109° |
| 2026-04-23 10:36 | 52.15050 | 3.74697 | 37471 ft | 431 kts | 109° |
| 2026-04-23 10:36 | 52.13112 | 3.83881 | 37467 ft | 427 kts | 109° |
| 2026-04-23 10:37 | 52.11184 | 3.92967 | 37469 ft | 423 kts | 109° |
| 2026-04-23 10:37 | 52.09268 | 4.01962 | 37485 ft | 425 kts | 109° |
| 2026-04-23 10:38 | 52.07315 | 4.11083 | 37485 ft | 431 kts | 109° |
| 2026-04-23 10:38 | 52.05329 | 4.20322 | 37492 ft | 436 kts | 109° |
| 2026-04-23 10:39 | 52.03313 | 4.29653 | 37485 ft | 438 kts | 109° |
| 2026-04-23 10:39 | 52.01423 | 4.38357 | 37471 ft | 434 kts | 109° |
| 2026-04-23 10:40 | 51.99427 | 4.47515 | 37479 ft | 428 kts | 109° |
| 2026-04-23 10:40 | 51.97435 | 4.56614 | 37486 ft | 427 kts | 108° |
| 2026-04-23 10:41 | 51.95442 | 4.65681 | 37479 ft | 427 kts | 108° |
| 2026-04-23 10:41 | 51.93443 | 4.74732 | 37481 ft | 427 kts | 108° |
| 2026-04-23 10:42 | 51.91433 | 4.83795 | 37475 ft | 428 kts | 108° |
| 2026-04-23 10:42 | 51.89411 | 4.92875 | 37477 ft | 430 kts | 108° |
| 2026-04-23 10:43 | 51.87371 | 5.01993 | 37466 ft | 432 kts | 108° |
| 2026-04-23 10:43 | 51.85313 | 5.11151 | 37471 ft | 434 kts | 108° |
| 2026-04-23 10:44 | 51.83240 | 5.20335 | 37465 ft | 436 kts | 108° |
| 2026-04-23 10:44 | 51.81148 | 5.29560 | 37460 ft | 438 kts | 108° |
| 2026-04-23 10:45 | 51.79045 | 5.38799 | 37462 ft | 439 kts | 108° |
| 2026-04-23 10:45 | 51.76929 | 5.48051 | 37462 ft | 440 kts | 109° |
| 2026-04-23 10:46 | 51.74803 | 5.57305 | 37456 ft | 440 kts | 109° |
| 2026-04-23 10:46 | 51.72670 | 5.66553 | 37462 ft | 440 kts | 109° |
| 2026-04-23 10:47 | 51.70530 | 5.75786 | 37447 ft | 439 kts | 109° |
| 2026-04-23 10:47 | 51.68401 | 5.84936 | 37455 ft | 439 kts | 109° |
| 2026-04-23 10:48 | 51.66253 | 5.94127 | 37452 ft | 438 kts | 109° |
| 2026-04-23 10:48 | 51.64101 | 6.03298 | 37458 ft | 438 kts | 109° |
| 2026-04-23 10:49 | 51.61943 | 6.12453 | 37460 ft | 437 kts | 109° |
| 2026-04-23 10:49 | 51.59780 | 6.21593 | 37455 ft | 437 kts | 109° |
| 2026-04-23 10:50 | 51.57608 | 6.30730 | 37463 ft | 437 kts | 109° |
| 2026-04-23 10:50 | 51.55427 | 6.39867 | 37458 ft | 438 kts | 109° |
| 2026-04-23 10:51 | 51.53235 | 6.49013 | 37440 ft | 439 kts | 109° |
| 2026-04-23 10:51 | 51.51031 | 6.58167 | 37433 ft | 440 kts | 109° |
| 2026-04-23 10:52 | 51.48818 | 6.67323 | 37424 ft | 440 kts | 109° |
| 2026-04-23 10:52 | 51.46594 | 6.76483 | 37426 ft | 441 kts | 109° |
| 2026-04-23 10:53 | 51.44361 | 6.85647 | 37423 ft | 442 kts | 109° |
| 2026-04-23 10:53 | 51.42115 | 6.94821 | 37422 ft | 442 kts | 109° |
| 2026-04-23 10:54 | 51.39862 | 7.03985 | 37418 ft | 443 kts | 109° |
| 2026-04-23 10:54 | 51.37615 | 7.13091 | 37419 ft | 443 kts | 109° |
| 2026-04-23 10:55 | 51.35344 | 7.22255 | 37411 ft | 443 kts | 109° |
| 2026-04-23 10:55 | 51.33062 | 7.31425 | 37415 ft | 444 kts | 109° |
| 2026-04-23 10:56 | 51.30771 | 7.40591 | 37407 ft | 444 kts | 109° |
| 2026-04-23 10:56 | 51.28474 | 7.49746 | 37406 ft | 444 kts | 109° |
| 2026-04-23 10:57 | 51.26168 | 7.58899 | 37408 ft | 444 kts | 109° |
| 2026-04-23 10:57 | 51.23855 | 7.68043 | 37412 ft | 444 kts | 109° |
| 2026-04-23 10:58 | 51.21533 | 7.77183 | 37397 ft | 445 kts | 109° |
| 2026-04-23 10:58 | 51.19203 | 7.86318 | 37399 ft | 445 kts | 109° |
| 2026-04-23 10:59 | 51.16864 | 7.95454 | 37385 ft | 445 kts | 109° |
| 2026-04-23 10:59 | 51.14517 | 8.04584 | 37388 ft | 445 kts | 109° |
| 2026-04-23 11:00 | 51.12161 | 8.13717 | 37383 ft | 446 kts | 109° |
| 2026-04-23 11:00 | 51.09789 | 8.22831 | 37372 ft | 447 kts | 111° |
| 2026-04-23 11:01 | 51.06706 | 8.31463 | 37380 ft | 450 kts | 119° |
| 2026-04-23 11:01 | 51.03383 | 8.39891 | 37369 ft | 450 kts | 119° |
| 2026-04-23 11:02 | 51.00072 | 8.48328 | 37373 ft | 450 kts | 119° |
| 2026-04-23 11:02 | 50.96783 | 8.56781 | 37358 ft | 450 kts | 118° |
| 2026-04-23 11:03 | 50.93496 | 8.65235 | 37362 ft | 450 kts | 118° |
| 2026-04-23 11:03 | 50.90760 | 8.72253 | 37358 ft | 450 kts | 119° |
| 2026-04-23 11:04 | 50.87461 | 8.80686 | 37360 ft | 450 kts | 119° |
| 2026-04-23 11:04 | 50.84155 | 8.89106 | 37359 ft | 450 kts | 119° |
| 2026-04-23 11:05 | 50.80848 | 8.97505 | 37359 ft | 450 kts | 119° |
| 2026-04-23 11:05 | 50.77532 | 9.05898 | 37353 ft | 450 kts | 119° |
| 2026-04-23 11:06 | 50.72564 | 9.18473 | 37357 ft | 449 kts | 116° |
| 2026-04-23 11:07 | 50.70256 | 9.27514 | 37365 ft | 443 kts | 103° |
| 2026-04-23 11:07 | 50.68540 | 9.36843 | 37340 ft | 443 kts | 103° |
| 2026-04-23 11:08 | 50.66823 | 9.46115 | 37351 ft | 443 kts | 103° |
| 2026-04-23 11:08 | 50.65052 | 9.55424 | 37350 ft | 443 kts | 104° |
| 2026-04-23 11:09 | 50.63260 | 9.64719 | 37356 ft | 444 kts | 104° |
| 2026-04-23 11:09 | 50.61456 | 9.74011 | 37364 ft | 443 kts | 104° |
| 2026-04-23 11:10 | 50.59648 | 9.83288 | 37358 ft | 443 kts | 104° |
| 2026-04-23 11:10 | 50.57832 | 9.92565 | 37352 ft | 444 kts | 104° |
| 2026-04-23 11:11 | 50.56007 | 10.01842 | 37351 ft | 444 kts | 104° |
| 2026-04-23 11:11 | 50.54174 | 10.11116 | 37352 ft | 444 kts | 104° |
| 2026-04-23 11:12 | 50.52335 | 10.20374 | 37339 ft | 444 kts | 104° |
| 2026-04-23 11:12 | 50.50489 | 10.29624 | 37344 ft | 444 kts | 104° |
| 2026-04-23 11:13 | 50.48635 | 10.38883 | 37346 ft | 444 kts | 104° |
| 2026-04-23 11:13 | 50.46773 | 10.48126 | 37339 ft | 444 kts | 104° |
| 2026-04-23 11:14 | 50.44920 | 10.57363 | 37339 ft | 444 kts | 104° |
| 2026-04-23 11:14 | 50.43066 | 10.66606 | 37339 ft | 444 kts | 104° |
| 2026-04-23 11:15 | 50.41208 | 10.75834 | 37343 ft | 444 kts | 104° |
| 2026-04-23 11:15 | 50.39341 | 10.85053 | 37331 ft | 444 kts | 104° |
| 2026-04-23 11:16 | 50.37464 | 10.94271 | 37331 ft | 444 kts | 104° |
| 2026-04-23 11:16 | 50.35584 | 11.03468 | 37327 ft | 444 kts | 104° |
| 2026-04-23 11:17 | 50.33694 | 11.12666 | 37329 ft | 444 kts | 104° |
| 2026-04-23 11:17 | 50.31799 | 11.21847 | 37325 ft | 443 kts | 104° |
| 2026-04-23 11:18 | 50.29896 | 11.31025 | 37329 ft | 443 kts | 104° |
| 2026-04-23 11:18 | 50.27987 | 11.40189 | 37312 ft | 443 kts | 105° |
| 2026-04-23 11:19 | 50.26086 | 11.49276 | 37307 ft | 443 kts | 105° |
| 2026-04-23 11:19 | 50.24162 | 11.58425 | 37307 ft | 443 kts | 105° |
| 2026-04-23 11:20 | 50.22234 | 11.67559 | 37288 ft | 443 kts | 105° |
| 2026-04-23 11:20 | 50.20299 | 11.76680 | 37292 ft | 443 kts | 105° |
| 2026-04-23 11:21 | 50.18356 | 11.85801 | 37299 ft | 443 kts | 105° |
| 2026-04-23 11:21 | 50.16404 | 11.94921 | 37292 ft | 443 kts | 105° |
| 2026-04-23 11:22 | 50.14444 | 12.04038 | 37297 ft | 443 kts | 105° |
| 2026-04-23 11:22 | 50.12479 | 12.13142 | 37304 ft | 443 kts | 105° |
| 2026-04-23 11:23 | 50.10504 | 12.22245 | 37296 ft | 443 kts | 105° |
| 2026-04-23 11:23 | 50.08526 | 12.31332 | 37299 ft | 443 kts | 105° |
| 2026-04-23 11:24 | 50.06541 | 12.40414 | 37298 ft | 443 kts | 105° |
| 2026-04-23 11:24 | 50.04749 | 12.49577 | 37286 ft | 442 kts | 102° |
| 2026-04-23 11:25 | 50.03113 | 12.58790 | 37281 ft | 442 kts | 102° |
| 2026-04-23 11:25 | 50.01449 | 12.67998 | 37273 ft | 442 kts | 103° |
| 2026-04-23 11:26 | 49.99751 | 12.77177 | 37277 ft | 442 kts | 103° |
| 2026-04-23 11:26 | 49.98036 | 12.86356 | 37269 ft | 442 kts | 103° |
| 2026-04-23 11:27 | 49.96314 | 12.95524 | 37264 ft | 442 kts | 103° |
| 2026-04-23 11:27 | 49.94586 | 13.04686 | 37270 ft | 442 kts | 103° |
| 2026-04-23 11:28 | 49.92855 | 13.13829 | 37263 ft | 442 kts | 103° |
| 2026-04-23 11:28 | 49.91116 | 13.22967 | 37269 ft | 441 kts | 103° |
| 2026-04-23 11:29 | 49.89461 | 13.32129 | 37262 ft | 441 kts | 102° |
| 2026-04-23 11:29 | 49.87895 | 13.41312 | 37265 ft | 441 kts | 101° |
| 2026-04-23 11:30 | 49.86322 | 13.50490 | 37261 ft | 441 kts | 102° |
| 2026-04-23 11:30 | 49.84728 | 13.59659 | 37256 ft | 441 kts | 102° |
| 2026-04-23 11:31 | 49.83131 | 13.68760 | 37251 ft | 441 kts | 102° |
| 2026-04-23 11:31 | 49.82314 | 13.73384 | 36968 ft | 435 kts | 101° |
| 2026-04-23 11:31 | 49.81520 | 13.77855 | 37090 ft | 426 kts | 101° |
| 2026-04-23 11:32 | 49.79971 | 13.86576 | 37219 ft | 422 kts | 101° |
| 2026-04-23 11:32 | 49.78413 | 13.95333 | 37251 ft | 423 kts | 101° |
| 2026-04-23 11:33 | 49.76843 | 14.04111 | 37267 ft | 424 kts | 101° |
| 2026-04-23 11:33 | 49.75257 | 14.12927 | 37261 ft | 426 kts | 101° |
| 2026-04-23 11:34 | 49.73659 | 14.21757 | 37273 ft | 428 kts | 101° |
| 2026-04-23 11:34 | 49.72854 | 14.26195 | 37115 ft | 431 kts | 101° |
| 2026-04-23 11:34 | 49.72038 | 14.30691 | 36650 ft | 434 kts | 101° |
| 2026-04-23 11:34 | 49.71221 | 14.35165 | 36109 ft | 432 kts | 101° |
| 2026-04-23 11:35 | 49.70404 | 14.39621 | 35525 ft | 432 kts | 101° |
| 2026-04-23 11:35 | 49.69584 | 14.44086 | 34922 ft | 432 kts | 100° |
| 2026-04-23 11:35 | 49.68764 | 14.48547 | 34312 ft | 432 kts | 100° |
| 2026-04-23 11:35 | 49.67942 | 14.53009 | 33594 ft | 432 kts | 100° |
| 2026-04-23 11:36 | 49.67122 | 14.57451 | 33011 ft | 430 kts | 100° |
| 2026-04-23 11:36 | 49.66304 | 14.61854 | 32767 ft | 420 kts | 100° |
| 2026-04-23 11:36 | 49.65502 | 14.66152 | 32414 ft | 413 kts | 100° |
| 2026-04-23 11:36 | 49.64716 | 14.70373 | 31925 ft | 410 kts | 100° |
| 2026-04-23 11:37 | 49.63926 | 14.74613 | 31390 ft | 409 kts | 99° |
| 2026-04-23 11:37 | 49.63142 | 14.78817 | 30943 ft | 406 kts | 99° |
| 2026-04-23 11:37 | 49.62363 | 14.82979 | 30511 ft | 403 kts | 99° |
| 2026-04-23 11:37 | 49.61592 | 14.87093 | 30040 ft | 399 kts | 99° |
| 2026-04-23 11:38 | 49.60820 | 14.91199 | 29507 ft | 397 kts | 99° |
| 2026-04-23 11:38 | 49.60053 | 14.95269 | 29011 ft | 394 kts | 99° |
| 2026-04-23 11:38 | 49.59292 | 14.99301 | 28509 ft | 391 kts | 99° |
| 2026-04-23 11:38 | 49.58531 | 15.03323 | 28002 ft | 390 kts | 99° |
| 2026-04-23 11:39 | 49.57775 | 15.07310 | 27510 ft | 388 kts | 99° |
| 2026-04-23 11:39 | 49.57018 | 15.11293 | 27051 ft | 386 kts | 99° |
| 2026-04-23 11:39 | 49.56265 | 15.15247 | 26597 ft | 383 kts | 100° |
| 2026-04-23 11:39 | 49.55517 | 15.19166 | 26144 ft | 382 kts | 100° |
| 2026-04-23 11:40 | 49.54767 | 15.23084 | 25691 ft | 380 kts | 100° |
| 2026-04-23 11:40 | 49.54020 | 15.26984 | 25272 ft | 378 kts | 100° |
| 2026-04-23 11:40 | 49.53274 | 15.30870 | 24825 ft | 377 kts | 100° |
| 2026-04-23 11:40 | 49.52533 | 15.34724 | 24416 ft | 375 kts | 100° |
| 2026-04-23 11:41 | 49.51795 | 15.38548 | 24013 ft | 374 kts | 101° |
| 2026-04-23 11:41 | 49.51054 | 15.42382 | 23582 ft | 373 kts | 101° |
| 2026-04-23 11:41 | 49.50326 | 15.46145 | 23116 ft | 371 kts | 101° |
| 2026-04-23 11:41 | 49.49583 | 15.49973 | 22675 ft | 368 kts | 101° |
| 2026-04-23 11:42 | 49.48850 | 15.53744 | 22265 ft | 366 kts | 101° |
| 2026-04-23 11:42 | 49.48123 | 15.57473 | 21858 ft | 364 kts | 101° |
| 2026-04-23 11:42 | 49.47406 | 15.61148 | 21455 ft | 362 kts | 101° |
| 2026-04-23 11:42 | 49.46682 | 15.64850 | 21043 ft | 361 kts | 101° |
| 2026-04-23 11:43 | 49.45963 | 15.68527 | 20637 ft | 359 kts | 101° |
| 2026-04-23 11:43 | 49.45242 | 15.72202 | 20271 ft | 358 kts | 101° |
| 2026-04-23 11:43 | 49.44526 | 15.75841 | 19890 ft | 356 kts | 101° |
| 2026-04-23 11:43 | 49.43810 | 15.79478 | 19509 ft | 355 kts | 101° |
| 2026-04-23 11:44 | 49.43096 | 15.83102 | 19159 ft | 353 kts | 102° |
| 2026-04-23 11:44 | 49.42387 | 15.86694 | 18803 ft | 351 kts | 102° |
| 2026-04-23 11:44 | 49.41677 | 15.90282 | 18437 ft | 350 kts | 102° |
| 2026-04-23 11:44 | 49.40967 | 15.93858 | 18020 ft | 349 kts | 102° |
| 2026-04-23 11:45 | 49.40241 | 15.97396 | 17663 ft | 347 kts | 103° |
| 2026-04-23 11:45 | 49.39486 | 16.00919 | 17263 ft | 346 kts | 103° |
| 2026-04-23 11:45 | 49.38724 | 16.04425 | 16862 ft | 345 kts | 103° |
| 2026-04-23 11:45 | 49.37963 | 16.07916 | 16483 ft | 344 kts | 103° |
| 2026-04-23 11:46 | 49.37211 | 16.11373 | 16136 ft | 342 kts | 103° |
| 2026-04-23 11:46 | 49.36457 | 16.14836 | 15792 ft | 340 kts | 103° |
| 2026-04-23 11:46 | 49.35709 | 16.18278 | 15432 ft | 339 kts | 103° |
| 2026-04-23 11:46 | 49.34964 | 16.21699 | 15091 ft | 338 kts | 103° |
| 2026-04-23 11:47 | 49.34221 | 16.25115 | 14754 ft | 337 kts | 103° |
| 2026-04-23 11:47 | 49.33623 | 16.27860 | 14518 ft | 336 kts | 103° |
| 2026-04-23 11:47 | 49.32883 | 16.31246 | 14213 ft | 334 kts | 103° |
| 2026-04-23 11:47 | 49.32144 | 16.34617 | 13880 ft | 333 kts | 103° |
| 2026-04-23 11:48 | 49.31414 | 16.37971 | 13554 ft | 332 kts | 103° |
| 2026-04-23 11:48 | 49.30683 | 16.41307 | 13208 ft | 331 kts | 103° |
| 2026-04-23 11:48 | 49.29948 | 16.44655 | 12832 ft | 330 kts | 103° |
| 2026-04-23 11:48 | 49.29218 | 16.47975 | 12514 ft | 328 kts | 103° |
| 2026-04-23 11:49 | 49.28488 | 16.51276 | 12218 ft | 326 kts | 103° |
| 2026-04-23 11:49 | 49.27765 | 16.54561 | 11895 ft | 325 kts | 103° |
| 2026-04-23 11:49 | 49.27045 | 16.57830 | 11565 ft | 324 kts | 103° |
| 2026-04-23 11:49 | 49.26323 | 16.61098 | 11233 ft | 323 kts | 104° |
| 2026-04-23 11:50 | 49.25604 | 16.64350 | 10900 ft | 322 kts | 104° |
| 2026-04-23 11:50 | 49.24886 | 16.67589 | 10575 ft | 321 kts | 104° |
| 2026-04-23 11:50 | 49.24410 | 16.69727 | 10353 ft | 320 kts | 104° |
| 2026-04-23 11:50 | 49.23459 | 16.73999 | 9913 ft | 320 kts | 104° |
| 2026-04-23 11:51 | 49.22786 | 16.77222 | 9592 ft | 315 kts | 98° |
| 2026-04-23 11:51 | 49.22445 | 16.80488 | 9320 ft | 308 kts | 91° |
| 2026-04-23 11:51 | 49.22213 | 16.83754 | 8899 ft | 310 kts | 91° |
| 2026-04-23 11:51 | 49.22048 | 16.85973 | 8661 ft | 310 kts | 92° |
| 2026-04-23 11:52 | 49.21782 | 16.89234 | 8429 ft | 307 kts | 92° |
| 2026-04-23 11:52 | 49.21508 | 16.92465 | 8166 ft | 306 kts | 92° |
| 2026-04-23 11:52 | 49.21230 | 16.95645 | 7840 ft | 306 kts | 93° |
| 2026-04-23 11:52 | 49.20944 | 16.98872 | 7542 ft | 305 kts | 93° |
| 2026-04-23 11:53 | 49.20658 | 17.02082 | 7214 ft | 304 kts | 93° |
| 2026-04-23 11:53 | 49.20370 | 17.05246 | 6833 ft | 298 kts | 93° |
| 2026-04-23 11:53 | 49.20085 | 17.08360 | 6438 ft | 294 kts | 94° |
| 2026-04-23 11:53 | 49.19388 | 17.11317 | 5990 ft | 301 kts | 121° |
| 2026-04-23 11:54 | 49.17891 | 17.13525 | 5615 ft | 302 kts | 149° |
| 2026-04-23 11:54 | 49.15918 | 17.14450 | 5333 ft | 293 kts | 177° |
| 2026-04-23 11:54 | 49.13967 | 17.14026 | 5120 ft | 280 kts | 210° |
| 2026-04-23 11:54 | 49.12596 | 17.12168 | 5058 ft | 255 kts | 245° |
| 2026-04-23 11:55 | 49.12171 | 17.09723 | 5007 ft | 228 kts | 271° |
| 2026-04-23 11:55 | 49.12113 | 17.07386 | 4923 ft | 215 kts | 274° |
| 2026-04-23 11:55 | 49.12153 | 17.05123 | 4763 ft | 213 kts | 279° |
| 2026-04-23 11:55 | 49.12302 | 17.02884 | 4550 ft | 211 kts | 281° |
| 2026-04-23 11:56 | 49.12486 | 17.00639 | 4343 ft | 216 kts | 282° |
| 2026-04-23 11:56 | 49.12678 | 16.98365 | 4058 ft | 212 kts | 281° |
| 2026-04-23 11:56 | 49.12859 | 16.96182 | 3833 ft | 203 kts | 281° |
| 2026-04-23 11:56 | 49.13033 | 16.94070 | 3600 ft | 198 kts | 282° |
| 2026-04-23 11:57 | 49.13202 | 16.92041 | 3468 ft | 185 kts | 282° |
| 2026-04-23 11:57 | 49.13362 | 16.90133 | 3290 ft | 180 kts | 282° |
| 2026-04-23 11:57 | 49.13526 | 16.88228 | 3015 ft | 180 kts | 282° |
| 2026-04-23 11:57 | 49.13688 | 16.86341 | 2770 ft | 182 kts | 281° |
| 2026-04-23 11:58 | 49.13823 | 16.84446 | 2563 ft | 177 kts | 283° |
| 2026-04-23 11:58 | 49.14001 | 16.82593 | 2278 ft | 173 kts | 283° |
| 2026-04-23 11:58 | 49.14144 | 16.80884 | 2085 ft | 158 kts | 283° |
| 2026-04-23 11:58 | 49.14279 | 16.79296 | 1843 ft | 145 kts | 283° |
| 2026-04-23 11:59 | 49.14399 | 16.77820 | 1603 ft | 137 kts | 285° |
| 2026-04-23 11:59 | 49.14530 | 16.76390 | 1397 ft | 135 kts | 283° |
| 2026-04-23 11:59 | 49.14663 | 16.74921 | 1218 ft | 151 kts | 282° |
| 2026-04-23 11:59 | 49.14794 | 16.73271 | 1077 ft | 158 kts | 282° |
| 2026-04-23 12:00 | 49.14931 | 16.71630 | 827 ft | 151 kts | 283° |
| 2026-04-23 12:00 | 49.15064 | 16.70147 | 734 ft | 128 kts | 283° |
| 2026-04-23 12:00 | 49.15172 | 16.68966 | 728 ft | 92 kts | 277° |
| 2026-04-23 12:00 | 49.15233 | 16.68225 | 727 ft | 48 kts | 278° |
| 2026-04-23 12:01 | 49.15262 | 16.67916 | 729 ft | 23 kts | 278° |
| 2026-04-23 12:01 | 49.15272 | 16.67796 | 729 ft | 9 kts | 277° |
| 2026-04-23 12:01 | 49.15282 | 16.67677 | 733 ft | 14 kts | 280° |
| 2026-04-23 12:01 | 49.15372 | 16.67621 | 735 ft | 16 kts | 7° |
| 2026-04-23 12:02 | 49.15461 | 16.67676 | 737 ft | 14 kts | 59° |
| 2026-04-23 12:02 | 49.15458 | 16.67820 | 737 ft | 13 kts | 97° |
| 2026-04-23 12:02 | 49.15446 | 16.67958 | 737 ft | 13 kts | 97° |
| 2026-04-23 12:02 | 49.15432 | 16.68122 | 737 ft | 18 kts | 97° |
| 2026-04-23 12:03 | 49.15416 | 16.68307 | 737 ft | 17 kts | 97° |
| 2026-04-23 12:03 | 49.15407 | 16.68403 | 737 ft | 0 kts | 97° |
| 2026-04-23 12:04 | 49.15405 | 16.68425 | 737 ft | 5 kts | 97° |
| 2026-04-23 12:04 | 49.15399 | 16.68506 | 739 ft | 11 kts | 97° |
| 2026-04-23 12:05 | 49.15386 | 16.68657 | 739 ft | 18 kts | 97° |
| 2026-04-23 12:05 | 49.15370 | 16.68851 | 739 ft | 16 kts | 97° |
| 2026-04-23 12:05 | 49.15358 | 16.68977 | 740 ft | 8 kts | 98° |
| 2026-04-23 12:05 | 49.15352 | 16.69051 | 740 ft | 6 kts | 97° |
| 2026-04-23 12:06 | 49.15345 | 16.69128 | 740 ft | 9 kts | 97° |
| 2026-04-23 12:06 | 49.15358 | 16.69187 | 740 ft | 6 kts | 25° |
| 2026-04-23 12:06 | 49.15391 | 16.69156 | 741 ft | 5 kts | 287° |
| 2026-04-23 12:07 | 49.15395 | 16.69117 | 741 ft | 4 kts | 277° |
| 2026-04-23 12:07 | 49.15390 | 16.69103 | 741 ft | 1 kts | 216° |
| 2026-04-23 12:07 | 49.15386 | 16.69104 | 741 ft | 0 kts | 188° |